Time;durP1;ratioP1;P1;durP2;ratioP2;P2;SDS_P1;SDS_P2;PMS_P1;PMS_P2;Temp;Humidity;BMP_temperature;BMP_pressure;BME280_temperature;BME280_humidity;BME280_pressure;Samples;Min_cycle;Max_cycle;Signal;HPM_P1;HPM_P2
2022/06/09 00:00:46;;;;;;;24.23;18.38;;;;;;;;;;5099084;28;20087;-83
2022/06/09 00:03:16;;;;;;;22.25;18.38;;;;;;;;;;5104099;28;20119;-82
2022/06/09 00:05:43;;;;;;;19.58;17.50;;;;;;;;;;5086585;28;20035;-85
2022/06/09 00:08:09;;;;;;;20.52;18.35;;;;;;;;;;5082050;28;20522;-84
2022/06/09 00:10:38;;;;;;;19.77;17.77;;;;;;;;;;5093111;28;20044;-87
2022/06/09 00:13:04;;;;;;;19.40;17.30;;;;;;;;;;5096444;28;20031;-87
2022/06/09 00:15:31;;;;;;;20.73;16.77;;;;;;;;;;5074890;28;20016;-85
2022/06/09 00:17:57;;;;;;;19.27;17.30;;;;;;;;;;5080092;28;20022;-83
2022/06/09 00:20:24;;;;;;;20.30;17.70;;;;;;;;;;5095857;28;20176;-88
2022/06/09 00:22:50;;;;;;;19.77;16.70;;;;;;;;;;5075785;28;20028;-87
2022/06/09 00:25:16;;;;;;;22.20;15.95;;;;;;;;;;5092058;28;20482;-86
2022/06/09 00:27:42;;;;;;;20.63;16.30;;;;;;;;;;5085325;28;20034;-87
2022/06/09 00:30:09;;;;;;;19.67;16.27;;;;;;;;;;5077992;28;20024;-84
2022/06/09 00:32:35;;;;;;;19.17;15.77;;;;;;;;;;5075699;28;20039;-84
2022/06/09 00:35:01;;;;;;;18.73;16.73;;;;;;;;;;5086242;28;20099;-86
2022/06/09 00:37:27;;;;;;;20.75;17.10;;;;;;;;;;5090337;28;20021;-87
2022/06/09 00:39:54;;;;;;;18.17;15.05;;;;;;;;;;5092284;28;20095;-83
2022/06/09 00:48:39;;;;;;;16.88;14.77;;;;;;;;;;5055444;23;20045;-84
2022/06/09 00:51:12;;;;;;;16.58;14.60;;;;;;;;;;5034661;28;20490;-86
2022/06/09 00:53:39;;;;;;;19.02;15.40;;;;;;;;;;5041264;28;20107;-85
2022/06/09 00:56:06;;;;;;;16.95;15.15;;;;;;;;;;5034258;28;20521;-85
2022/06/09 00:58:35;;;;;;;17.85;14.27;;;;;;;;;;5051232;28;20028;-81
2022/06/09 01:01:03;;;;;;;17.70;15.25;;;;;;;;;;5049730;28;20044;-82
2022/06/09 01:03:36;;;;;;;16.08;13.73;;;;;;;;;;5033860;28;20459;-85
2022/06/09 01:06:06;;;;;;;15.82;14.13;;;;;;;;;;5033500;28;20037;-86
2022/06/09 01:08:32;;;;;;;16.95;14.07;;;;;;;;;;5032350;28;20049;-81
2022/06/09 01:10:58;;;;;;;16.67;13.32;;;;;;;;;;5032913;28;20041;-86
2022/06/09 01:13:25;;;;;;;14.73;13.02;;;;;;;;;;5052590;28;20036;-84
2022/06/09 01:15:55;;;;;;;14.57;13.07;;;;;;;;;;5033448;28;20021;-84
2022/06/09 01:18:21;;;;;;;17.40;13.02;;;;;;;;;;5035369;28;20025;-85
2022/06/09 01:20:53;;;;;;;16.65;13.32;;;;;;;;;;5049763;28;20047;-85
2022/06/09 01:23:40;;;;;;;20.88;16.63;;;;;;;;;;5034095;28;20505;-82
2022/06/09 01:26:18;;;;;;;19.30;16.00;;;;;;;;;;5041766;28;20479;-83
2022/06/09 01:28:44;;;;;;;19.55;16.13;;;;;;;;;;5065850;28;20037;-83
2022/06/09 01:31:23;;;;;;;18.73;15.88;;;;;;;;;;5065124;28;20031;-82
2022/06/09 01:34:05;;;;;;;21.52;18.13;;;;;;;;;;5081341;28;20064;-78
2022/06/09 01:36:36;;;;;;;20.33;16.50;;;;;;;;;;5101011;28;20055;-81
2022/06/09 01:39:25;;;;;;;22.13;16.40;;;;;;;;;;5080361;28;20075;-78
2022/06/09 01:41:57;;;;;;;20.33;16.15;;;;;;;;;;5059044;28;20501;-82
2022/06/09 01:44:23;;;;;;;22.67;16.10;;;;;;;;;;5073779;28;20040;-79
2022/06/09 01:46:50;;;;;;;23.27;16.70;;;;;;;;;;5076539;28;20040;-79
2022/06/09 01:52:30;;;;;;;21.90;17.05;;;;;;;;;;5079894;28;20040;-79
2022/06/09 01:54:57;;;;;;;18.02;14.98;;;;;;;;;;5060561;28;20061;-79
2022/06/09 01:57:29;;;;;;;18.83;14.90;;;;;;;;;;5077036;28;20031;-79
2022/06/09 02:02:41;;;;;;;17.73;13.70;;;;;;;;;;5590749;22;20053;-81
2022/06/09 02:05:12;;;;;;;20.30;14.23;;;;;;;;;;5092545;28;20031;-83
2022/06/09 02:07:41;;;;;;;18.75;14.15;;;;;;;;;;5071699;28;20514;-81
2022/06/09 02:10:16;;;;;;;17.05;13.80;;;;;;;;;;5087166;28;20047;-87
2022/06/09 02:12:44;;;;;;;15.82;12.75;;;;;;;;;;5085504;28;20032;-88
2022/06/09 02:15:11;;;;;;;15.98;13.48;;;;;;;;;;5077601;28;20040;-86
2022/06/09 02:17:55;;;;;;;16.90;13.82;;;;;;;;;;5074142;28;20473;-87
2022/06/09 02:20:23;;;;;;;14.90;13.07;;;;;;;;;;5073954;28;20150;-87
2022/06/09 02:22:49;;;;;;;17.05;14.63;;;;;;;;;;5076469;28;20020;-87
2022/06/09 02:28:15;;;;;;;19.73;11.95;;;;;;;;;;5078712;28;20562;-88
2022/06/09 02:30:43;;;;;;;16.85;10.63;;;;;;;;;;5070531;28;20024;-84
2022/06/09 02:33:12;;;;;;;11.32;9.38;;;;;;;;;;5089587;28;20063;-81
2022/06/09 02:38:45;;;;;;;12.32;9.80;;;;;;;;;;5076095;28;20424;-86
2022/06/09 02:41:11;;;;;;;12.48;10.05;;;;;;;;;;5056270;28;20044;-82
2022/06/09 02:43:37;;;;;;;13.25;10.70;;;;;;;;;;5084856;28;20025;-82
2022/06/09 02:46:04;;;;;;;15.63;11.80;;;;;;;;;;5093521;28;20028;-80
2022/06/09 02:48:30;;;;;;;15.95;11.52;;;;;;;;;;5097256;28;20069;-80
2022/06/09 02:50:56;;;;;;;14.65;11.45;;;;;;;;;;5098477;28;20021;-80
2022/06/09 02:53:24;;;;;;;12.60;10.65;;;;;;;;;;5082022;28;20092;-80
2022/06/09 02:55:50;;;;;;;15.13;10.25;;;;;;;;;;5080550;28;20033;-79
2022/06/09 02:58:16;;;;;;;14.35;11.60;;;;;;;;;;5069253;28;20043;-80
2022/06/09 03:00:54;;;;;;;14.57;11.65;;;;;;;;;;5060956;28;20024;-79
2022/06/09 03:03:20;;;;;;;15.38;12.18;;;;;;;;;;5061149;28;20047;-79
2022/06/09 03:05:46;;;;;;;14.18;11.70;;;;;;;;;;5086891;28;20076;-79
2022/06/09 03:08:12;;;;;;;14.68;11.88;;;;;;;;;;5080229;28;20029;-79
2022/06/09 03:10:38;;;;;;;13.95;11.50;;;;;;;;;;5077126;28;20025;-79
2022/06/09 03:13:06;;;;;;;11.50;10.18;;;;;;;;;;5060506;28;20017;-79
2022/06/09 03:33:51;;;;;;;10.00;7.82;;;;;;;;;;6083842;22;20012;-81
2022/06/09 03:36:20;;;;;;;11.80;8.45;;;;;;;;;;5072174;28;20422;-78
2022/06/09 03:38:46;;;;;;;11.02;8.68;;;;;;;;;;5071730;28;20037;-78
2022/06/09 03:41:12;;;;;;;11.32;9.27;;;;;;;;;;5091426;23;20056;-80
2022/06/09 03:43:38;;;;;;;16.75;9.70;;;;;;;;;;5095506;28;20550;-80
2022/06/09 03:46:05;;;;;;;9.48;7.78;;;;;;;;;;5113228;28;20044;-81
2022/06/09 03:51:41;;;;;;;10.73;8.65;;;;;;;;;;5101250;28;20047;-79
2022/06/09 03:54:08;;;;;;;10.07;9.07;;;;;;;;;;5096747;28;20033;-79
2022/06/09 03:56:35;;;;;;;10.82;8.45;;;;;;;;;;5093572;28;20048;-79
2022/06/09 03:59:01;;;;;;;11.02;8.60;;;;;;;;;;5092440;28;20047;-79
2022/06/09 04:01:27;;;;;;;16.08;9.30;;;;;;;;;;5111114;28;20032;-78
2022/06/09 04:03:53;;;;;;;15.02;8.65;;;;;;;;;;5090588;28;20040;-81
2022/06/09 04:06:21;;;;;;;11.13;8.65;;;;;;;;;;5087889;28;20157;-81
2022/06/09 04:08:48;;;;;;;18.45;10.25;;;;;;;;;;5090177;28;20051;-81
2022/06/09 04:11:15;;;;;;;12.02;8.38;;;;;;;;;;5530128;22;20579;-78
2022/06/09 04:13:41;;;;;;;10.68;8.82;;;;;;;;;;5059988;28;20029;-82
2022/06/09 04:16:14;;;;;;;11.20;7.93;;;;;;;;;;5068949;28;20044;-77
2022/06/09 04:18:40;;;;;;;17.77;8.55;;;;;;;;;;5066656;28;20021;-81
2022/06/09 04:21:07;;;;;;;11.50;7.90;;;;;;;;;;5069934;28;20029;-81
2022/06/09 04:23:34;;;;;;;9.60;8.10;;;;;;;;;;5069226;28;20045;-84
2022/06/09 04:26:00;;;;;;;11.90;7.97;;;;;;;;;;5067264;28;20029;-82
2022/06/09 04:28:26;;;;;;;16.77;9.77;;;;;;;;;;5058928;28;20502;-76
2022/06/09 04:30:52;;;;;;;17.05;10.38;;;;;;;;;;5057911;28;20025;-77
2022/06/09 04:33:20;;;;;;;14.32;10.57;;;;;;;;;;5066941;28;20466;-72
2022/06/09 04:35:48;;;;;;;16.00;10.55;;;;;;;;;;5051680;28;20045;-72
2022/06/09 04:38:20;;;;;;;15.27;10.95;;;;;;;;;;5002810;28;20045;-77
2022/06/09 04:54:41;;;;;;;9.48;7.18;;;;;;;;;;5452588;23;20038;-77
2022/06/09 04:57:13;;;;;;;9.93;7.53;;;;;;;;;;5046153;28;20121;-76
2022/06/09 04:59:39;;;;;;;9.88;6.90;;;;;;;;;;5049588;23;20049;-76
2022/06/09 05:02:05;;;;;;;11.65;7.00;;;;;;;;;;5039973;28;20029;-74
2022/06/09 05:04:31;;;;;;;8.18;6.50;;;;;;;;;;5050191;28;20034;-76
2022/06/09 05:06:57;;;;;;;9.90;7.20;;;;;;;;;;5050070;28;20018;-75
2022/06/09 05:12:15;;;;;;;10.43;7.38;;;;;;;;;;5371087;23;20149;-78
2022/06/09 05:14:42;;;;;;;10.02;8.18;;;;;;;;;;5002761;28;20061;-79
2022/06/09 05:17:11;;;;;;;10.57;7.43;;;;;;;;;;5027920;28;20006;-79
2022/06/09 05:19:37;;;;;;;9.70;8.02;;;;;;;;;;5012182;28;20065;-77
2022/06/09 05:22:04;;;;;;;9.98;8.10;;;;;;;;;;5014100;28;20030;-79
2022/06/09 05:24:30;;;;;;;10.07;8.15;;;;;;;;;;4994962;28;20033;-80
2022/06/09 05:26:56;;;;;;;10.95;7.82;;;;;;;;;;5013132;28;20029;-83
2022/06/09 05:29:22;;;;;;;10.15;7.75;;;;;;;;;;5005895;28;20037;-79
2022/06/09 05:31:48;;;;;;;10.65;7.85;;;;;;;;;;5014307;28;20460;-83
2022/06/09 05:34:15;;;;;;;10.20;7.63;;;;;;;;;;5014125;28;20470;-86
2022/06/09 05:36:41;;;;;;;9.57;7.07;;;;;;;;;;5000560;28;20041;-78
2022/06/09 05:44:52;;;;;;;7.32;6.30;;;;;;;;;;5013009;28;20033;-84
2022/06/09 05:47:21;;;;;;;9.13;6.40;;;;;;;;;;5014348;28;20038;-83
2022/06/09 05:49:51;;;;;;;8.90;6.47;;;;;;;;;;4996234;28;20121;-83
2022/06/09 05:52:18;;;;;;;9.07;6.65;;;;;;;;;;4996786;28;20034;-84
2022/06/09 05:54:44;;;;;;;12.43;6.90;;;;;;;;;;5011048;28;20030;-81
2022/06/09 05:57:11;;;;;;;10.15;6.78;;;;;;;;;;4996692;28;20057;-88
2022/06/09 05:59:37;;;;;;;7.78;6.53;;;;;;;;;;4997558;28;20025;-88
2022/06/09 06:02:04;;;;;;;7.72;6.38;;;;;;;;;;4998609;28;20125;-88
2022/06/09 06:04:30;;;;;;;8.02;5.75;;;;;;;;;;4997565;28;20029;-86
2022/06/09 06:06:56;;;;;;;8.45;6.18;;;;;;;;;;5014987;28;20073;-81
2022/06/09 06:09:22;;;;;;;11.70;7.38;;;;;;;;;;5014184;28;20018;-90
2022/06/09 06:11:49;;;;;;;11.32;7.68;;;;;;;;;;4988621;28;20443;-74
2022/06/09 06:14:15;;;;;;;12.77;8.00;;;;;;;;;;4973169;28;20019;-77
2022/06/09 06:16:42;;;;;;;9.52;8.02;;;;;;;;;;4989213;28;20242;-86
2022/06/09 06:19:10;;;;;;;11.27;7.90;;;;;;;;;;4974397;28;20034;-75
2022/06/09 06:21:36;;;;;;;10.68;7.28;;;;;;;;;;4969769;28;20101;-73
2022/06/09 06:24:03;;;;;;;12.20;7.65;;;;;;;;;;4989012;28;20039;-76
2022/06/09 06:26:31;;;;;;;11.55;7.88;;;;;;;;;;4973547;28;20146;-83
2022/06/09 06:28:57;;;;;;;8.63;7.25;;;;;;;;;;4972717;28;20019;-82
2022/06/09 06:31:23;;;;;;;9.55;7.15;;;;;;;;;;4972460;28;20392;-84
2022/06/09 06:33:50;;;;;;;9.85;8.25;;;;;;;;;;4974403;28;20085;-83
2022/06/09 06:36:16;;;;;;;11.40;8.15;;;;;;;;;;4974829;28;20026;-91
2022/06/09 06:38:42;;;;;;;13.77;7.95;;;;;;;;;;4974694;28;20037;-81
2022/06/09 06:41:09;;;;;;;12.20;8.02;;;;;;;;;;4972658;28;20431;-85
2022/06/09 06:43:35;;;;;;;9.65;7.25;;;;;;;;;;4973480;28;20534;-81
2022/06/09 06:46:02;;;;;;;8.98;7.57;;;;;;;;;;4975606;28;20072;-90
2022/06/09 06:48:28;;;;;;;8.85;6.95;;;;;;;;;;4990540;28;20023;-88
2022/06/09 06:50:54;;;;;;;9.82;6.50;;;;;;;;;;4990484;28;20058;-89
2022/06/09 06:53:20;;;;;;;9.43;6.47;;;;;;;;;;4989658;28;20164;-85
2022/06/09 06:55:46;;;;;;;10.10;6.60;;;;;;;;;;4974175;28;20030;-85
2022/06/09 06:58:12;;;;;;;11.32;7.10;;;;;;;;;;4974309;28;20078;-87
2022/06/09 07:00:39;;;;;;;11.02;7.57;;;;;;;;;;4990187;28;20065;-91
2022/06/09 07:03:07;;;;;;;8.32;6.75;;;;;;;;;;4972992;28;20019;-88
2022/06/09 07:05:33;;;;;;;15.32;7.60;;;;;;;;;;4987269;28;20027;-87
2022/06/09 07:07:59;;;;;;;10.00;7.20;;;;;;;;;;4974274;28;20393;-90
2022/06/09 07:10:25;;;;;;;9.38;7.45;;;;;;;;;;4973785;28;20015;-88
2022/06/09 07:12:51;;;;;;;16.70;7.68;;;;;;;;;;4989004;28;20201;-89
2022/06/09 07:15:18;;;;;;;10.63;7.95;;;;;;;;;;4993535;28;20030;-89
2022/06/09 07:17:44;;;;;;;10.20;6.68;;;;;;;;;;4994736;28;20019;-84
2022/06/09 07:20:14;;;;;;;10.85;7.32;;;;;;;;;;4994723;28;20026;-83
2022/06/09 07:22:40;;;;;;;8.27;6.70;;;;;;;;;;4995676;28;20153;-88
2022/06/09 07:25:06;;;;;;;8.65;6.05;;;;;;;;;;4991834;28;20030;-89
2022/06/09 07:27:32;;;;;;;8.70;5.93;;;;;;;;;;4992114;28;20038;-91
2022/06/09 07:29:58;;;;;;;12.20;6.28;;;;;;;;;;4994367;28;20114;-87
2022/06/09 07:32:25;;;;;;;9.85;7.07;;;;;;;;;;4992885;28;20631;-89
2022/06/09 07:34:51;;;;;;;10.50;7.57;;;;;;;;;;4993987;28;20049;-87
2022/06/09 07:37:17;;;;;;;8.07;7.00;;;;;;;;;;4993565;28;20476;-86
2022/06/09 07:39:43;;;;;;;8.45;6.13;;;;;;;;;;4994303;28;20106;-88
2022/06/09 07:42:10;;;;;;;9.30;6.68;;;;;;;;;;4994063;28;20070;-87
2022/06/09 07:44:36;;;;;;;10.27;6.63;;;;;;;;;;4992972;28;20030;-87
2022/06/09 07:47:02;;;;;;;7.55;5.90;;;;;;;;;;4991780;28;20043;-86
2022/06/09 07:49:28;;;;;;;12.82;5.70;;;;;;;;;;4993350;28;20026;-83
2022/06/09 07:51:54;;;;;;;9.23;6.85;;;;;;;;;;4993767;28;20041;-84
2022/06/09 07:54:20;;;;;;;6.97;5.78;;;;;;;;;;4993509;28;20505;-86
2022/06/09 07:56:47;;;;;;;10.25;5.75;;;;;;;;;;4991484;28;20030;-84
2022/06/09 07:59:13;;;;;;;8.45;5.57;;;;;;;;;;4992053;28;20030;-83
2022/06/09 08:01:39;;;;;;;7.65;5.93;;;;;;;;;;4993718;28;20046;-84
2022/06/09 08:04:05;;;;;;;8.40;5.70;;;;;;;;;;4993541;28;20022;-83
2022/06/09 08:06:31;;;;;;;13.77;7.13;;;;;;;;;;4993412;28;20038;-84
2022/06/09 08:08:58;;;;;;;10.40;5.70;;;;;;;;;;4990868;28;20029;-82
2022/06/09 08:11:29;;;;;;;8.00;6.78;;;;;;;;;;4991792;28;20046;-84
2022/06/09 08:13:56;;;;;;;8.57;5.80;;;;;;;;;;4993361;28;20540;-85
2022/06/09 08:16:22;;;;;;;8.63;5.65;;;;;;;;;;4992964;28;20030;-88
2022/06/09 08:18:49;;;;;;;10.80;6.53;;;;;;;;;;4989151;28;20050;-81
2022/06/09 08:21:15;;;;;;;8.27;6.25;;;;;;;;;;4990877;28;20023;-71
2022/06/09 08:23:41;;;;;;;9.52;6.90;;;;;;;;;;4993097;28;20025;-80
2022/06/09 08:26:07;;;;;;;12.70;7.68;;;;;;;;;;4988684;28;20078;-77
2022/06/09 08:28:33;;;;;;;8.75;7.20;;;;;;;;;;4990275;28;20093;-80
2022/06/09 08:30:59;;;;;;;8.82;7.60;;;;;;;;;;4990618;28;20027;-80
2022/06/09 08:33:26;;;;;;;9.27;7.45;;;;;;;;;;4988825;28;20022;-81
2022/06/09 08:35:53;;;;;;;8.77;7.15;;;;;;;;;;4991652;28;20026;-76
2022/06/09 08:38:20;;;;;;;9.63;7.57;;;;;;;;;;4995281;28;20022;-88
2022/06/09 08:40:54;;;;;;;12.90;7.78;;;;;;;;;;4995255;28;20034;-86
2022/06/09 08:43:31;;;;;;;9.25;7.72;;;;;;;;;;5003628;28;20018;-86
2022/06/09 08:46:01;;;;;;;8.77;7.75;;;;;;;;;;4995263;28;20053;-92
2022/06/09 08:48:30;;;;;;;8.90;7.82;;;;;;;;;;4996266;28;20023;-87
2022/06/09 08:50:59;;;;;;;10.63;8.18;;;;;;;;;;4995684;28;20077;-88
2022/06/09 08:53:37;;;;;;;9.48;7.75;;;;;;;;;;4995244;28;20034;-84
2022/06/09 08:56:21;;;;;;;9.93;7.97;;;;;;;;;;4995573;28;20030;-86
2022/06/09 08:58:56;;;;;;;10.73;7.32;;;;;;;;;;5004241;28;20451;-87
2022/06/09 09:01:38;;;;;;;8.50;7.18;;;;;;;;;;4994394;28;20104;-74
2022/06/09 09:04:22;;;;;;;8.07;7.00;;;;;;;;;;4995337;28;20034;-78
2022/06/09 09:07:08;;;;;;;10.45;7.18;;;;;;;;;;4993435;28;20061;-76
2022/06/09 09:09:36;;;;;;;9.52;7.88;;;;;;;;;;4982073;28;20519;-74
2022/06/09 09:12:08;;;;;;;9.10;8.15;;;;;;;;;;5003166;28;20046;-76
2022/06/09 09:15:02;;;;;;;7.50;6.68;;;;;;;;;;5015408;28;20026;-86
2022/06/09 09:17:41;;;;;;;12.98;6.82;;;;;;;;;;4977224;28;20040;-89
2022/06/09 09:20:16;;;;;;;7.45;6.18;;;;;;;;;;4996917;28;20030;-89
2022/06/09 09:22:54;;;;;;;7.85;5.70;;;;;;;;;;4998194;28;20479;-86
2022/06/09 09:25:23;;;;;;;9.82;5.55;;;;;;;;;;5013417;28;20030;-82
2022/06/09 09:28:08;;;;;;;12.00;5.43;;;;;;;;;;4996294;28;20515;-84
2022/06/09 09:30:36;;;;;;;10.73;5.90;;;;;;;;;;4996816;28;20433;-84
2022/06/09 09:33:02;;;;;;;8.40;5.60;;;;;;;;;;5015206;28;20034;-84
2022/06/09 09:35:32;;;;;;;6.00;5.40;;;;;;;;;;5013318;28;20022;-83
2022/06/09 09:37:59;;;;;;;8.82;5.60;;;;;;;;;;5009620;28;20030;-86
2022/06/09 09:40:39;;;;;;;9.63;5.57;;;;;;;;;;4996825;28;20427;-81
2022/06/09 09:43:14;;;;;;;12.98;5.80;;;;;;;;;;4994925;28;20488;-84
2022/06/09 09:45:42;;;;;;;6.78;5.38;;;;;;;;;;4995498;28;20033;-83
2022/06/09 09:48:17;;;;;;;5.45;4.70;;;;;;;;;;4998536;28;20026;-83
2022/06/09 09:50:47;;;;;;;11.77;5.60;;;;;;;;;;5005298;28;20076;-79
2022/06/09 09:53:19;;;;;;;5.78;5.07;;;;;;;;;;4995259;28;20119;-75
2022/06/09 09:55:54;;;;;;;5.70;4.50;;;;;;;;;;4996266;28;20061;-80
2022/06/09 09:58:20;;;;;;;6.53;4.72;;;;;;;;;;5012228;28;20022;-77
2022/06/09 10:00:48;;;;;;;7.60;4.95;;;;;;;;;;5007809;28;20083;-81
2022/06/09 10:09:09;;;;;;;5.72;4.63;;;;;;;;;;5013821;28;20033;-81
2022/06/09 10:11:55;;;;;;;6.53;4.28;;;;;;;;;;5012459;28;20053;-73
2022/06/09 10:14:43;;;;;;;5.93;4.72;;;;;;;;;;4995198;28;20502;-91
2022/06/09 10:17:28;;;;;;;6.40;4.55;;;;;;;;;;5008703;28;20044;-84
2022/06/09 10:19:59;;;;;;;5.63;4.78;;;;;;;;;;4995404;28;20391;-85
2022/06/09 10:22:26;;;;;;;5.93;4.50;;;;;;;;;;4993558;28;20022;-85
2022/06/09 10:24:55;;;;;;;5.47;4.85;;;;;;;;;;4994701;28;20542;-82
2022/06/09 10:27:22;;;;;;;7.35;5.00;;;;;;;;;;5011627;28;20061;-78
2022/06/09 10:29:48;;;;;;;6.05;4.70;;;;;;;;;;5014454;28;20093;-91
2022/06/09 10:32:20;;;;;;;5.28;4.63;;;;;;;;;;5012168;28;20368;-87
2022/06/09 10:35:06;;;;;;;7.30;4.78;;;;;;;;;;5010015;28;20030;-88
2022/06/09 10:38:02;;;;;;;8.75;4.72;;;;;;;;;;4995558;28;20040;-81
2022/06/09 10:40:34;;;;;;;7.90;5.10;;;;;;;;;;4927770;29;20516;-84
2022/06/09 10:43:02;;;;;;;6.13;5.03;;;;;;;;;;4932659;29;20120;-74
2022/06/09 10:46:07;;;;;;;14.55;5.13;;;;;;;;;;4928452;29;20111;-79
2022/06/09 10:57:13;;;;;;;6.60;4.43;;;;;;;;;;4894531;29;20073;-89
2022/06/09 10:59:55;;;;;;;7.28;4.43;;;;;;;;;;4899526;29;20041;-84
2022/06/09 11:02:23;;;;;;;6.43;4.50;;;;;;;;;;4897898;29;20058;-87
2022/06/09 11:04:51;;;;;;;8.65;5.32;;;;;;;;;;4896249;29;20045;-87
2022/06/09 11:07:19;;;;;;;5.85;4.57;;;;;;;;;;4901555;29;20044;-86
2022/06/09 11:09:45;;;;;;;5.00;4.35;;;;;;;;;;4898662;29;20033;-81
2022/06/09 11:12:14;;;;;;;7.38;4.43;;;;;;;;;;4902188;29;20083;-87
2022/06/09 11:14:41;;;;;;;8.82;4.35;;;;;;;;;;4880881;29;20033;-86
2022/06/09 11:17:09;;;;;;;7.30;3.97;;;;;;;;;;4888958;29;20051;-87
2022/06/09 11:19:51;;;;;;;4.63;3.95;;;;;;;;;;4955189;28;20030;-86
2022/06/09 11:22:17;;;;;;;7.55;4.30;;;;;;;;;;4970205;28;20508;-87
2022/06/09 11:24:53;;;;;;;6.97;4.18;;;;;;;;;;4965468;28;20081;-87
2022/06/09 11:27:21;;;;;;;5.72;3.85;;;;;;;;;;4988567;28;20045;-82
2022/06/09 11:29:51;;;;;;;4.60;3.63;;;;;;;;;;4980977;28;20173;-86
2022/06/09 11:32:25;;;;;;;6.35;3.70;;;;;;;;;;4965888;28;20034;-86
2022/06/09 11:34:51;;;;;;;7.28;3.90;;;;;;;;;;4974289;28;20117;-84
2022/06/09 11:37:35;;;;;;;4.55;3.65;;;;;;;;;;4976907;28;20047;-84
2022/06/09 11:40:07;;;;;;;9.07;3.90;;;;;;;;;;4961226;28;20030;-82
2022/06/09 11:42:53;;;;;;;7.75;3.85;;;;;;;;;;4982544;28;20034;-78
2022/06/09 11:45:19;;;;;;;6.45;4.00;;;;;;;;;;4965281;28;20145;-87
2022/06/09 11:47:46;;;;;;;7.70;3.78;;;;;;;;;;4972317;28;20522;-74
2022/06/09 11:50:16;;;;;;;7.47;4.00;;;;;;;;;;4974180;28;20023;-83
2022/06/09 11:52:45;;;;;;;7.68;3.92;;;;;;;;;;4979791;28;20030;-87
2022/06/09 11:55:20;;;;;;;5.70;3.65;;;;;;;;;;4987531;28;20125;-85
2022/06/09 11:57:49;;;;;;;7.38;4.30;;;;;;;;;;4978837;28;20119;-85
2022/06/09 12:00:24;;;;;;;5.03;4.20;;;;;;;;;;4963135;28;20026;-85
2022/06/09 12:02:56;;;;;;;5.80;3.95;;;;;;;;;;4982782;28;20033;-80
2022/06/09 12:05:22;;;;;;;6.43;3.90;;;;;;;;;;4988380;28;20076;-86
2022/06/09 12:08:15;;;;;;;7.38;4.20;;;;;;;;;;4987397;28;20038;-77
2022/06/09 12:10:57;;;;;;;10.30;5.53;;;;;;;;;;4939666;28;20042;-84
2022/06/09 12:13:25;;;;;;;7.13;4.28;;;;;;;;;;5003831;28;20411;-78
2022/06/09 12:15:58;;;;;;;5.18;3.70;;;;;;;;;;4990716;28;20476;-75
2022/06/09 12:18:24;;;;;;;;;;;;;;;;;;4994291;28;20030;-83
2022/06/09 12:20:50;;;;;;;4.88;3.42;;;;;;;;;;5001671;28;19909;-83
2022/06/09 12:23:17;;;;;;;4.20;3.25;;;;;;;;;;4995085;28;20026;-85
2022/06/09 12:25:57;;;;;;;11.55;3.80;;;;;;;;;;4998754;28;20026;-84
2022/06/09 12:28:44;;;;;;;5.53;3.35;;;;;;;;;;4991965;28;20037;-79
2022/06/09 12:31:20;;;;;;;5.85;3.60;;;;;;;;;;4952453;29;20071;-80
2022/06/09 12:33:56;;;;;;;6.18;3.63;;;;;;;;;;4956765;28;20039;-83
2022/06/09 12:36:35;;;;;;;7.70;3.67;;;;;;;;;;4946264;29;20039;-85
2022/06/09 12:39:03;;;;;;;5.45;3.70;;;;;;;;;;4952079;28;20134;-84
2022/06/09 12:41:38;;;;;;;10.25;3.70;;;;;;;;;;4954624;28;20032;-85
2022/06/09 12:44:07;;;;;;;5.40;4.03;;;;;;;;;;4964810;28;20062;-83
2022/06/09 12:46:33;;;;;;;9.43;4.10;;;;;;;;;;4937967;29;20031;-87
2022/06/09 12:49:00;;;;;;;5.57;3.90;;;;;;;;;;4955840;28;20076;-88
2022/06/09 12:51:26;;;;;;;6.10;4.00;;;;;;;;;;4952686;29;20544;-84
2022/06/09 12:53:57;;;;;;;4.60;3.97;;;;;;;;;;4957162;28;20086;-76
2022/06/09 12:56:41;;;;;;;7.18;4.20;;;;;;;;;;4957211;28;20031;-83
2022/06/09 12:59:16;;;;;;;7.82;4.55;;;;;;;;;;4945861;29;20020;-84
2022/06/09 13:01:50;;;;;;;6.18;4.90;;;;;;;;;;4952253;29;20028;-89
2022/06/09 13:04:18;;;;;;;8.02;4.53;;;;;;;;;;4953691;28;20055;-85
2022/06/09 13:06:47;;;;;;;5.00;4.05;;;;;;;;;;4935812;29;20053;-87
2022/06/09 13:09:16;;;;;;;6.70;4.13;;;;;;;;;;4988557;28;20045;-85
2022/06/09 13:14:28;;;;;;;6.95;4.75;;;;;;;;;;5014585;28;20064;-86
2022/06/09 13:16:58;;;;;;;5.90;4.10;;;;;;;;;;5012727;28;20026;-85
2022/06/09 13:19:25;;;;;;;14.43;4.50;;;;;;;;;;5012660;28;20495;-87
2022/06/09 13:21:52;;;;;;;7.82;4.13;;;;;;;;;;4994472;28;20030;-84
2022/06/09 13:24:22;;;;;;;6.53;4.05;;;;;;;;;;4996324;28;20026;-87
2022/06/09 13:26:50;;;;;;;6.07;4.30;;;;;;;;;;5021319;28;20546;-87
2022/06/09 13:29:27;;;;;;;6.53;4.20;;;;;;;;;;4984717;28;20030;-84
2022/06/09 13:32:08;;;;;;;7.75;4.68;;;;;;;;;;5016282;28;20106;-87
2022/06/09 13:34:47;;;;;;;9.65;3.75;;;;;;;;;;5016690;28;20061;-87
2022/06/09 13:37:16;;;;;;;7.45;3.83;;;;;;;;;;5000469;28;20033;-84
2022/06/09 13:39:46;;;;;;;6.35;3.75;;;;;;;;;;5015815;28;20101;-87
2022/06/09 13:42:51;;;;;;;10.35;4.05;;;;;;;;;;5015557;28;20117;-87
2022/06/09 13:45:19;;;;;;;5.10;3.97;;;;;;;;;;5005581;28;20042;-73
2022/06/09 13:48:04;;;;;;;6.70;3.78;;;;;;;;;;5015418;28;20037;-86
2022/06/09 13:50:35;;;;;;;7.13;3.90;;;;;;;;;;5020392;28;20536;-85
2022/06/09 13:53:22;;;;;;;19.00;4.20;;;;;;;;;;4997920;28;20029;-88
2022/06/09 13:55:48;;;;;;;7.88;3.83;;;;;;;;;;4997247;28;20479;-86
2022/06/09 13:58:19;;;;;;;7.95;3.60;;;;;;;;;;4996317;28;20040;-88
2022/06/09 14:00:48;;;;;;;8.13;4.28;;;;;;;;;;4998055;28;20026;-79
2022/06/09 14:03:14;;;;;;;14.00;4.93;;;;;;;;;;5027685;28;20441;-78
2022/06/09 14:05:46;;;;;;;8.45;4.68;;;;;;;;;;5017709;28;20109;-78
2022/06/09 14:08:13;;;;;;;4.80;3.95;;;;;;;;;;5009049;28;20030;-76
2022/06/09 14:10:39;;;;;;;6.22;3.72;;;;;;;;;;5012510;28;20550;-79
2022/06/09 14:13:05;;;;;;;6.38;3.63;;;;;;;;;;5013484;28;20104;-76
2022/06/09 14:15:33;;;;;;;6.78;3.85;;;;;;;;;;4993050;28;20036;-79
2022/06/09 14:17:59;;;;;;;7.15;3.65;;;;;;;;;;5012947;28;20026;-79
2022/06/09 14:20:30;;;;;;;8.10;3.72;;;;;;;;;;5011687;28;20092;-89
2022/06/09 14:22:57;;;;;;;5.75;3.50;;;;;;;;;;4997111;28;20041;-83
2022/06/09 14:25:24;;;;;;;9.10;3.70;;;;;;;;;;4994683;28;20030;-86
2022/06/09 14:27:50;;;;;;;6.90;3.53;;;;;;;;;;4995617;28;20044;-85
2022/06/09 14:30:17;;;;;;;7.63;3.70;;;;;;;;;;4994495;28;20053;-85
2022/06/09 14:32:43;;;;;;;6.13;3.95;;;;;;;;;;4995183;28;20053;-84
2022/06/09 14:35:14;;;;;;;8.88;3.45;;;;;;;;;;5012223;28;20030;-87
2022/06/09 14:37:40;;;;;;;6.10;3.83;;;;;;;;;;5003623;28;20092;-74
2022/06/09 14:40:15;;;;;;;9.48;3.97;;;;;;;;;;5014197;28;20030;-84
2022/06/09 14:42:41;;;;;;;6.38;4.05;;;;;;;;;;5013852;28;20527;-88
2022/06/09 14:45:09;;;;;;;6.10;4.25;;;;;;;;;;4993414;28;20734;-90
2022/06/09 14:47:35;;;;;;;7.05;4.03;;;;;;;;;;4995880;28;20061;-85
2022/06/09 14:50:02;;;;;;;8.23;4.85;;;;;;;;;;4995380;28;20029;-83
2022/06/09 14:52:28;;;;;;;8.10;4.45;;;;;;;;;;5013940;28;20058;-90
2022/06/09 14:54:54;;;;;;;8.95;4.63;;;;;;;;;;5013085;28;20018;-84
2022/06/09 14:57:20;;;;;;;7.97;4.25;;;;;;;;;;5011192;28;20040;-83
2022/06/09 14:59:46;;;;;;;8.00;3.63;;;;;;;;;;4995038;28;20484;-85
2022/06/09 15:02:22;;;;;;;8.05;3.63;;;;;;;;;;5010811;28;20053;-82
2022/06/09 15:04:48;;;;;;;4.40;3.40;;;;;;;;;;5010538;28;21453;-85
2022/06/09 15:07:17;;;;;;;9.15;3.55;;;;;;;;;;4994011;28;20046;-81
2022/06/09 15:09:43;;;;;;;5.75;3.50;;;;;;;;;;4994900;28;20022;-76
2022/06/09 15:12:10;;;;;;;12.18;3.78;;;;;;;;;;4994603;28;20097;-81
2022/06/09 15:14:36;;;;;;;5.50;3.90;;;;;;;;;;4993633;28;20041;-88
2022/06/09 15:17:02;;;;;;;6.00;3.95;;;;;;;;;;5013398;28;20040;-82
2022/06/09 15:19:28;;;;;;;4.28;3.22;;;;;;;;;;4995431;28;20028;-90
2022/06/09 15:21:55;;;;;;;7.18;4.25;;;;;;;;;;4990734;28;20073;-80
2022/06/09 15:24:21;;;;;;;6.45;3.90;;;;;;;;;;5010901;28;20033;-76
2022/06/09 15:26:50;;;;;;;5.68;3.92;;;;;;;;;;5010315;28;20026;-87
2022/06/09 15:29:18;;;;;;;6.65;4.10;;;;;;;;;;5006922;28;20540;-75
2022/06/09 15:31:45;;;;;;;8.60;3.65;;;;;;;;;;5009706;28;20033;-74
2022/06/09 15:34:11;;;;;;;6.93;4.43;;;;;;;;;;4993125;28;20030;-76
2022/06/09 15:36:37;;;;;;;11.85;8.65;;;;;;;;;;5011194;28;20034;-79
2022/06/09 15:39:04;;;;;;;10.07;4.75;;;;;;;;;;5012546;28;20021;-77
2022/06/09 15:41:30;;;;;;;6.53;3.70;;;;;;;;;;5011319;28;20026;-78
2022/06/09 15:43:56;;;;;;;5.75;3.70;;;;;;;;;;5009984;28;20415;-81
2022/06/09 15:46:23;;;;;;;4.50;3.28;;;;;;;;;;4989598;28;20089;-78
2022/06/09 15:48:49;;;;;;;5.63;3.28;;;;;;;;;;4992235;28;20042;-80
2022/06/09 15:51:16;;;;;;;4.47;3.28;;;;;;;;;;4992809;28;20553;-82
2022/06/09 15:53:47;;;;;;;7.18;3.83;;;;;;;;;;5010096;28;20022;-80
2022/06/09 15:56:13;;;;;;;6.20;3.45;;;;;;;;;;4992831;28;20026;-80
2022/06/09 15:58:39;;;;;;;5.55;4.00;;;;;;;;;;4990193;28;20025;-86
2022/06/09 16:01:11;;;;;;;6.40;3.60;;;;;;;;;;4989082;28;20487;-85
2022/06/09 16:03:58;;;;;;;6.20;3.30;;;;;;;;;;5009309;28;20022;-81
2022/06/09 16:06:23;;;;;;;8.90;5.32;;;;;;;;;;5009126;28;20041;-76
2022/06/09 16:08:49;;;;;;;8.48;5.20;;;;;;;;;;5014708;28;20077;-85